ENVA

Trondheim , Værnes Airport

Trondheim, Norway
METAR ENVA 220620Z 07003KT 9999 FEW011 BKN017 05/04 Q1017 TEMPO BKN012 RMK WIND 670FT 21006KT
Observed Flight Rules
Apr-22 @ 06:20 UTC (29 minutes ago) Marginal Visual Flight Rules
Wind Visibility Clouds
70° at 3 knots 10,000+ meters
  • Few at 1,100' AGL
  • Broken at 1,700' AGL
Temperatures Readings
Current 5°C / 41°F
Dewpoint 4°C / 39°F
Humidity 93%
Altimeter 30.03" Hg
Pressure 1017 hPa
Elevation 17
METAR ENVA 220620Z 07003KT 9999 FEW011 BKN017 05/04 Q1017 TEMPO BKN012 RMK WIND 670FT 21006KT
Observed Flight Rules
Apr-22 @ 06:20 UTC
(29 minutes ago)
MVFR
Wind Visibility
70° at 3 knots 10,000+ meters
Clouds
  • Few at 1,100' AGL
  • Broken at 1,700' AGL
Temperature Dewpoint
5°C / 41°F 4°C / 39°F
Humidity Altimeter Pressure
93% 30.03" Hg 1017 hPa